createdAt,value
2022-11-21T00:01:41.889Z,63.60
2022-11-21T00:07:04.170Z,63.08
2022-11-21T00:12:27.980Z,66.20
2022-11-21T00:17:50.235Z,68.05
2022-11-21T00:23:12.604Z,63.52
2022-11-21T00:28:34.842Z,59.42
2022-11-21T00:33:57.165Z,60.45
2022-11-21T00:39:19.462Z,63.42
2022-11-21T00:44:41.642Z,56.20
2022-11-21T00:50:03.916Z,57.65
2022-11-21T00:55:26.647Z,60.30
2022-11-21T01:00:48.949Z,59.83
2022-11-21T01:06:16.435Z,61.55
2022-11-21T01:11:39.980Z,61.63
2022-11-21T01:17:02.191Z,64.58
2022-11-21T01:22:24.441Z,70.97
2022-11-21T01:27:46.600Z,63.58
2022-11-21T01:33:09.306Z,65.50
2022-11-21T01:38:31.501Z,71.10
2022-11-21T01:43:54.133Z,66.53
2022-11-21T01:49:29.686Z,71.40
2022-11-21T01:54:59.683Z,70.37
2022-11-21T02:00:26.726Z,64.72
2022-11-21T02:05:51.638Z,67.87
2022-11-21T02:11:39.332Z,68.10
2022-11-21T02:17:02.807Z,66.95
2022-11-21T02:22:36.296Z,63.90
2022-11-21T02:28:02.645Z,72.32
2022-11-21T02:33:26.165Z,63.28
2022-11-21T02:38:53.462Z,67.60
2022-11-21T02:44:32.415Z,69.03
2022-11-21T02:50:23.291Z,63.00
2022-11-21T02:55:46.017Z,67.60
2022-11-21T03:01:08.243Z,67.05
2022-11-21T03:06:30.912Z,74.12
2022-11-21T03:11:53.281Z,63.95
2022-11-21T03:17:16.234Z,65.37
2022-11-21T03:22:39.084Z,63.85
2022-11-21T03:28:05.068Z,66.02
2022-11-21T03:33:27.359Z,76.25
2022-11-21T03:38:49.781Z,75.30
2022-11-21T03:44:14.394Z,80.12
2022-11-21T03:49:36.579Z,70.12
2022-11-21T03:54:58.752Z,71.62
2022-11-21T04:00:22.533Z,83.17
2022-11-21T04:05:44.745Z,79.53
2022-11-21T04:11:08.503Z,89.17
2022-11-21T04:16:30.876Z,90.95
2022-11-21T04:21:53.642Z,83.75
2022-11-21T04:27:15.842Z,93.17
2022-11-21T04:32:38.062Z,83.58
2022-11-21T04:38:00.249Z,92.72
2022-11-21T04:43:22.893Z,91.55
2022-11-21T04:48:45.139Z,96.50
2022-11-21T04:54:07.323Z,111.25
2022-11-21T04:59:29.608Z,107.67
2022-11-21T05:04:52.637Z,122.10
2022-11-21T05:10:15.109Z,105.58
2022-11-21T05:15:38.015Z,96.55
2022-11-21T05:21:00.267Z,105.72
2022-11-21T05:26:22.468Z,129.65
2022-11-21T05:31:45.148Z,95.32
2022-11-21T05:37:07.351Z,81.55
2022-11-21T05:42:47.382Z,79.03
2022-11-21T05:48:09.561Z,82.02
2022-11-21T05:53:32.925Z,80.07
2022-11-21T05:58:55.656Z,85.35
2022-11-21T06:04:20.032Z,88.75
2022-11-21T06:09:42.201Z,84.90
2022-11-21T06:15:04.372Z,85.25
2022-11-21T06:20:27.902Z,92.97
2022-11-21T06:25:50.100Z,98.27
2022-11-21T06:31:20.577Z,85.90
2022-11-21T06:36:45.003Z,95.25
2022-11-21T06:42:07.876Z,94.37
2022-11-21T06:47:30.077Z,99.62
2022-11-21T06:52:52.847Z,93.50
2022-11-21T06:58:18.423Z,94.03
2022-11-21T07:03:41.199Z,94.58
2022-11-21T07:09:31.546Z,91.85
2022-11-21T07:14:30.216Z,97.75
2022-11-21T07:19:52.757Z,101.38
2022-11-21T07:25:15.158Z,91.45
2022-11-21T07:30:37.418Z,90.30
2022-11-21T07:36:01.487Z,93.45
2022-11-21T07:41:23.707Z,89.58
2022-11-21T07:46:45.937Z,88.70
2022-11-21T07:52:08.128Z,90.20
2022-11-21T07:57:31.299Z,90.85
2022-11-21T08:02:53.582Z,101.10
2022-11-21T08:08:16.719Z,94.13
2022-11-21T08:13:38.942Z,96.72
2022-11-21T08:19:01.199Z,98.25
2022-11-21T08:24:23.547Z,87.02
2022-11-21T08:29:45.929Z,92.30
2022-11-21T08:35:08.177Z,144.45
2022-11-21T08:40:30.994Z,101.07
2022-11-21T08:45:54.018Z,96.70
2022-11-21T08:51:16.375Z,93.55
2022-11-21T08:56:39.115Z,94.55
2022-11-21T09:02:01.701Z,91.35
2022-11-21T09:07:24.115Z,90.38
2022-11-21T09:12:46.973Z,90.67
2022-11-21T09:18:10.818Z,109.22
2022-11-21T09:23:34.333Z,94.50
2022-11-21T09:28:57.580Z,92.45
2022-11-21T09:34:20.745Z,87.62
2022-11-21T09:39:43.415Z,90.97
2022-11-21T09:45:25.743Z,91.95
2022-11-21T09:50:55.422Z,89.52
2022-11-21T10:01:44.446Z,86.75
2022-11-21T10:07:28.995Z,92.22
2022-11-21T10:13:11.116Z,86.78
2022-11-21T10:18:41.333Z,87.42
2022-11-21T10:24:17.549Z,91.45
2022-11-21T10:30:03.785Z,93.12
2022-11-21T10:35:55.195Z,88.27
2022-11-21T10:41:32.298Z,86.97
2022-11-21T10:47:11.069Z,89.57
2022-11-21T10:52:38.304Z,90.00
2022-11-21T10:58:06.960Z,87.97
2022-11-21T11:03:31.134Z,66.60
2022-11-21T11:09:05.352Z,89.10
2022-11-21T11:14:38.334Z,89.00
2022-11-21T11:20:36.913Z,82.27
2022-11-21T11:26:04.201Z,83.30
2022-11-21T11:31:27.515Z,86.08
2022-11-21T11:36:58.716Z,82.15
2022-11-21T11:43:11.707Z,83.65
2022-11-21T11:48:56.288Z,74.47
2022-11-21T11:54:04.909Z,153.55
2022-11-21T11:59:40.765Z,88.65
2022-11-21T12:05:13.951Z,96.12
2022-11-21T12:10:42.595Z,92.10
2022-11-21T12:16:13.877Z,103.40
2022-11-21T12:21:36.365Z,114.22
2022-11-21T12:27:21.396Z,113.90
2022-11-21T12:33:09.885Z,104.60
2022-11-21T12:39:01.368Z,116.35
2022-11-21T12:44:48.364Z,103.22
2022-11-21T12:50:42.582Z,101.18
2022-11-21T12:56:09.229Z,103.90
2022-11-21T13:01:52.078Z,101.80
2022-11-21T13:07:16.707Z,97.47
2022-11-21T13:13:07.950Z,105.53
2022-11-21T13:24:07.739Z,97.23
2022-11-21T13:29:31.736Z,106.40
2022-11-21T13:34:55.843Z,99.73
2022-11-21T13:40:39.260Z,102.00
2022-11-21T13:46:04.336Z,110.00
2022-11-21T13:51:55.860Z,105.13
2022-11-21T13:57:32.451Z,116.17
2022-11-21T14:03:03.075Z,116.20
2022-11-21T14:14:06.840Z,112.23
2022-11-21T14:19:34.994Z,122.37
2022-11-21T14:24:59.293Z,120.40
2022-11-21T14:30:41.418Z,129.72
2022-11-21T14:36:08.296Z,124.03
2022-11-21T14:41:39.722Z,117.97
2022-11-21T14:47:26.633Z,124.62
2022-11-21T14:52:54.670Z,120.10
2022-11-21T14:58:20.180Z,122.03
2022-11-21T15:03:43.399Z,118.60
2022-11-21T15:14:39.424Z,134.13
2022-11-21T15:20:23.036Z,124.75
2022-11-21T15:31:39.994Z,118.93
2022-11-21T15:37:11.101Z,123.73
2022-11-21T15:42:53.824Z,118.33
2022-11-21T15:48:16.143Z,124.13
2022-11-21T15:53:38.998Z,125.33
2022-11-21T15:57:12.319Z,120.02
2022-11-21T15:59:03.298Z,123.93
2022-11-21T16:04:26.619Z,127.35
2022-11-21T16:09:50.207Z,125.37
2022-11-21T16:15:13.003Z,118.73
2022-11-21T16:20:35.364Z,123.60
2022-11-21T16:26:06.001Z,119.10
2022-11-21T16:31:35.592Z,127.27
2022-11-21T16:42:15.434Z,163.97
2022-11-21T16:47:41.121Z,121.22
2022-11-21T16:53:03.031Z,125.30
2022-11-21T16:58:25.364Z,121.70
2022-11-21T17:03:48.144Z,117.42
2022-11-21T17:09:12.594Z,118.55
2022-11-21T17:14:34.784Z,125.12
2022-11-21T17:19:57.267Z,121.53
2022-11-21T17:25:19.666Z,132.78
2022-11-21T17:30:44.858Z,124.03
2022-11-21T17:36:11.393Z,133.18
2022-11-21T17:41:36.258Z,128.47
2022-11-21T17:46:59.469Z,124.35
2022-11-21T17:52:23.596Z,132.93
2022-11-21T17:57:46.973Z,135.55
2022-11-21T18:03:09.491Z,135.57
2022-11-21T18:08:31.809Z,131.35
2022-11-21T18:13:56.421Z,137.10
2022-11-21T18:19:23.298Z,140.77
2022-11-21T18:24:47.006Z,141.35
2022-11-21T18:30:09.798Z,141.80
2022-11-21T18:35:32.103Z,145.92
2022-11-21T18:40:54.300Z,132.22
2022-11-21T18:46:24.636Z,154.15
2022-11-21T18:51:48.970Z,141.95
2022-11-21T18:57:11.908Z,137.15
2022-11-21T19:02:34.476Z,145.40
2022-11-21T19:07:58.483Z,142.35
2022-11-21T19:13:21.172Z,149.70
2022-11-21T19:18:55.017Z,150.10
2022-11-21T19:24:09.586Z,152.07
2022-11-21T19:29:33.778Z,157.10
2022-11-21T19:34:56.304Z,159.70
2022-11-21T19:40:19.676Z,148.80
2022-11-21T19:45:42.337Z,155.52
2022-11-21T19:51:13.511Z,155.63
2022-11-21T19:56:40.111Z,157.25
2022-11-21T20:02:02.392Z,168.50
2022-11-21T20:07:24.867Z,166.25
2022-11-21T20:12:47.809Z,174.12
2022-11-21T20:18:11.808Z,164.90
2022-11-21T20:23:34.031Z,175.57
2022-11-21T20:28:56.422Z,166.12
2022-11-21T20:34:24.074Z,171.65
2022-11-21T20:39:46.788Z,167.87
2022-11-21T20:46:06.588Z,172.43
2022-11-21T20:51:25.074Z,169.37
2022-11-21T20:55:57.125Z,174.97
2022-11-21T21:01:21.541Z,164.52
2022-11-21T21:06:43.785Z,168.32
2022-11-21T21:12:06.428Z,160.45
2022-11-21T21:17:29.050Z,185.80
2022-11-21T21:22:51.307Z,155.75
2022-11-21T21:28:13.577Z,155.52
2022-11-21T21:33:36.807Z,153.07
2022-11-21T21:39:12.947Z,151.42
2022-11-21T21:44:35.896Z,141.53
2022-11-21T21:49:58.671Z,139.82
2022-11-21T21:55:21.447Z,139.37
2022-11-21T22:00:44.117Z,143.77
2022-11-21T22:06:07.804Z,142.27
2022-11-21T22:11:38.223Z,149.95
2022-11-21T22:17:01.302Z,137.55
2022-11-21T22:22:23.496Z,134.17
2022-11-21T22:27:45.676Z,133.97
2022-11-21T22:33:07.980Z,144.37
2022-11-21T22:38:30.204Z,141.40
2022-11-21T22:43:54.472Z,134.25
2022-11-21T22:49:17.415Z,139.32
2022-11-21T22:54:39.903Z,137.43
2022-11-21T23:00:02.982Z,143.43
2022-11-21T23:05:25.365Z,145.87
2022-11-21T23:10:47.715Z,147.37
2022-11-21T23:16:10.740Z,138.72
2022-11-21T23:21:33.767Z,142.50
2022-11-21T23:26:56.032Z,143.95
2022-11-21T23:32:18.364Z,154.15
2022-11-21T23:37:40.627Z,150.13
2022-11-21T23:43:04.416Z,142.47
2022-11-21T23:48:27.576Z,139.82
2022-11-21T23:53:50.128Z,143.57
2022-11-21T23:59:12.375Z,144.30
